sensor_id;sensor_type;location;lat;lon;timestamp;P1;durP1;ratioP1;P2;durP2;ratioP2
6392;SDS011;3229;42.674;23.282;2022-10-23T19:09:54;6.70;;;4.43;;
6392;SDS011;3229;42.674;23.282;2022-10-23T19:12:22;5.40;;;4.37;;
6392;SDS011;3229;42.674;23.282;2022-10-23T19:14:51;6.23;;;4.13;;
6392;SDS011;3229;42.674;23.282;2022-10-23T19:17:20;6.97;;;4.70;;
6392;SDS011;3229;42.674;23.282;2022-10-23T19:19:50;6.60;;;4.77;;
6392;SDS011;3229;42.674;23.282;2022-10-23T19:22:21;4.67;;;4.13;;
6392;SDS011;3229;42.674;23.282;2022-10-23T19:24:50;6.47;;;4.40;;
6392;SDS011;3229;42.674;23.282;2022-10-23T19:27:22;5.63;;;4.13;;
6392;SDS011;3229;42.674;23.282;2022-10-23T19:29:52;6.00;;;4.67;;
6392;SDS011;3229;42.674;23.282;2022-10-23T19:32:22;7.87;;;5.03;;
6392;SDS011;3229;42.674;23.282;2022-10-23T19:34:49;5.83;;;4.47;;
6392;SDS011;3229;42.674;23.282;2022-10-23T19:37:18;5.47;;;4.10;;
6392;SDS011;3229;42.674;23.282;2022-10-23T19:39:48;4.47;;;3.97;;
6392;SDS011;3229;42.674;23.282;2022-10-23T19:42:15;5.43;;;4.83;;
6392;SDS011;3229;42.674;23.282;2022-10-23T19:44:46;5.10;;;4.47;;
6392;SDS011;3229;42.674;23.282;2022-10-23T19:47:15;6.57;;;5.40;;
6392;SDS011;3229;42.674;23.282;2022-10-23T19:49:42;4.97;;;4.37;;
6392;SDS011;3229;42.674;23.282;2022-10-23T19:52:09;6.20;;;5.00;;
6392;SDS011;3229;42.674;23.282;2022-10-23T19:54:37;8.53;;;5.03;;
6392;SDS011;3229;42.674;23.282;2022-10-23T19:57:05;7.63;;;5.37;;
6392;SDS011;3229;42.674;23.282;2022-10-23T19:59:32;7.90;;;5.17;;
6392;SDS011;3229;42.674;23.282;2022-10-23T20:02:02;10.73;;;4.17;;
6392;SDS011;3229;42.674;23.282;2022-10-23T20:04:29;7.90;;;4.67;;
6392;SDS011;3229;42.674;23.282;2022-10-23T20:06:59;7.97;;;4.40;;
6392;SDS011;3229;42.674;23.282;2022-10-23T20:09:26;7.13;;;4.70;;
6392;SDS011;3229;42.674;23.282;2022-10-23T20:11:55;12.67;;;5.00;;
6392;SDS011;3229;42.674;23.282;2022-10-23T20:14:29;11.83;;;5.03;;
6392;SDS011;3229;42.674;23.282;2022-10-23T20:16:56;7.03;;;4.40;;
6392;SDS011;3229;42.674;23.282;2022-10-23T20:19:25;9.83;;;5.00;;
6392;SDS011;3229;42.674;23.282;2022-10-23T20:21:52;5.33;;;4.73;;
6392;SDS011;3229;42.674;23.282;2022-10-23T20:24:19;8.03;;;4.43;;
6392;SDS011;3229;42.674;23.282;2022-10-23T20:26:47;7.47;;;5.07;;
6392;SDS011;3229;42.674;23.282;2022-10-23T20:29:16;9.03;;;3.80;;
6392;SDS011;3229;42.674;23.282;2022-10-23T20:31:43;12.23;;;5.10;;
6392;SDS011;3229;42.674;23.282;2022-10-23T20:34:10;7.73;;;4.97;;
6392;SDS011;3229;42.674;23.282;2022-10-23T20:36:40;7.83;;;5.13;;
6392;SDS011;3229;42.674;23.282;2022-10-23T20:39:10;8.23;;;4.90;;
6392;SDS011;3229;42.674;23.282;2022-10-23T20:41:38;7.20;;;5.10;;
6392;SDS011;3229;42.674;23.282;2022-10-23T20:44:06;8.63;;;4.97;;
6392;SDS011;3229;42.674;23.282;2022-10-23T20:46:35;7.00;;;4.97;;
6392;SDS011;3229;42.674;23.282;2022-10-23T20:49:03;6.83;;;5.07;;
6392;SDS011;3229;42.674;23.282;2022-10-23T20:51:29;7.13;;;4.43;;
6392;SDS011;3229;42.674;23.282;2022-10-23T20:53:58;8.87;;;4.67;;
6392;SDS011;3229;42.674;23.282;2022-10-23T20:56:26;8.97;;;5.67;;
6392;SDS011;3229;42.674;23.282;2022-10-23T20:58:55;10.63;;;5.33;;
6392;SDS011;3229;42.674;23.282;2022-10-23T21:01:22;10.43;;;6.17;;
6392;SDS011;3229;42.674;23.282;2022-10-23T21:03:50;8.23;;;5.03;;
6392;SDS011;3229;42.674;23.282;2022-10-23T21:06:20;9.23;;;6.07;;
6392;SDS011;3229;42.674;23.282;2022-10-23T21:08:47;8.50;;;5.00;;
6392;SDS011;3229;42.674;23.282;2022-10-23T21:11:16;7.27;;;5.23;;
6392;SDS011;3229;42.674;23.282;2022-10-23T21:13:43;10.00;;;5.80;;
6392;SDS011;3229;42.674;23.282;2022-10-23T21:16:11;9.13;;;4.87;;
6392;SDS011;3229;42.674;23.282;2022-10-23T21:18:39;9.10;;;5.17;;
6392;SDS011;3229;42.674;23.282;2022-10-23T21:21:06;9.63;;;4.90;;
6392;SDS011;3229;42.674;23.282;2022-10-23T21:23:34;6.70;;;5.37;;
6392;SDS011;3229;42.674;23.282;2022-10-23T21:26:01;9.50;;;5.53;;
6392;SDS011;3229;42.674;23.282;2022-10-23T21:28:31;9.73;;;5.53;;
6392;SDS011;3229;42.674;23.282;2022-10-23T21:31:01;10.33;;;5.53;;
6392;SDS011;3229;42.674;23.282;2022-10-23T21:33:28;9.27;;;6.17;;
6392;SDS011;3229;42.674;23.282;2022-10-23T21:35:55;8.10;;;5.67;;
6392;SDS011;3229;42.674;23.282;2022-10-23T21:38:22;9.40;;;5.83;;
6392;SDS011;3229;42.674;23.282;2022-10-23T21:40:49;9.53;;;6.43;;
6392;SDS011;3229;42.674;23.282;2022-10-23T21:43:16;8.23;;;6.13;;
6392;SDS011;3229;42.674;23.282;2022-10-23T21:45:44;7.67;;;5.53;;
6392;SDS011;3229;42.674;23.282;2022-10-23T21:48:11;8.33;;;6.07;;
6392;SDS011;3229;42.674;23.282;2022-10-23T21:50:38;7.90;;;6.07;;
6392;SDS011;3229;42.674;23.282;2022-10-23T21:53:05;9.03;;;5.60;;
6392;SDS011;3229;42.674;23.282;2022-10-23T21:55:32;11.00;;;6.60;;
6392;SDS011;3229;42.674;23.282;2022-10-23T21:57:59;7.63;;;5.87;;
6392;SDS011;3229;42.674;23.282;2022-10-23T22:00:26;7.47;;;6.20;;
6392;SDS011;3229;42.674;23.282;2022-10-23T22:02:54;7.03;;;5.80;;
6392;SDS011;3229;42.674;23.282;2022-10-23T22:05:21;9.50;;;5.87;;
6392;SDS011;3229;42.674;23.282;2022-10-23T22:07:47;10.83;;;6.80;;
6392;SDS011;3229;42.674;23.282;2022-10-23T22:10:14;7.23;;;6.47;;
6392;SDS011;3229;42.674;23.282;2022-10-23T22:12:41;10.23;;;6.63;;
6392;SDS011;3229;42.674;23.282;2022-10-23T22:15:08;8.50;;;6.53;;
6392;SDS011;3229;42.674;23.282;2022-10-23T22:17:35;10.03;;;6.73;;
6392;SDS011;3229;42.674;23.282;2022-10-23T22:20:04;8.13;;;6.03;;
6392;SDS011;3229;42.674;23.282;2022-10-23T22:22:32;8.00;;;6.57;;
6392;SDS011;3229;42.674;23.282;2022-10-23T22:24:59;8.23;;;6.73;;
6392;SDS011;3229;42.674;23.282;2022-10-23T22:27:27;9.13;;;6.90;;
6392;SDS011;3229;42.674;23.282;2022-10-23T22:29:54;9.40;;;6.37;;
6392;SDS011;3229;42.674;23.282;2022-10-23T22:32:22;11.00;;;7.17;;
6392;SDS011;3229;42.674;23.282;2022-10-23T22:34:49;13.57;;;7.70;;
6392;SDS011;3229;42.674;23.282;2022-10-23T22:37:17;10.73;;;7.20;;
6392;SDS011;3229;42.674;23.282;2022-10-23T22:39:44;9.33;;;6.70;;
6392;SDS011;3229;42.674;23.282;2022-10-23T22:42:11;10.50;;;6.60;;
6392;SDS011;3229;42.674;23.282;2022-10-23T22:44:38;9.70;;;6.73;;
6392;SDS011;3229;42.674;23.282;2022-10-23T22:47:05;7.57;;;6.77;;
6392;SDS011;3229;42.674;23.282;2022-10-23T22:49:32;11.10;;;6.93;;
6392;SDS011;3229;42.674;23.282;2022-10-23T22:51:59;13.83;;;7.63;;
6392;SDS011;3229;42.674;23.282;2022-10-23T22:54:27;10.27;;;7.10;;
6392;SDS011;3229;42.674;23.282;2022-10-23T22:56:55;9.90;;;7.37;;
6392;SDS011;3229;42.674;23.282;2022-10-23T22:59:22;8.50;;;6.73;;
6392;SDS011;3229;42.674;23.282;2022-10-23T23:01:49;10.37;;;7.40;;
6392;SDS011;3229;42.674;23.282;2022-10-23T23:04:16;9.83;;;7.40;;
6392;SDS011;3229;42.674;23.282;2022-10-23T23:06:43;10.80;;;7.33;;
6392;SDS011;3229;42.674;23.282;2022-10-23T23:09:12;9.93;;;7.30;;
6392;SDS011;3229;42.674;23.282;2022-10-23T23:11:40;11.53;;;7.57;;
6392;SDS011;3229;42.674;23.282;2022-10-23T23:14:07;12.43;;;7.97;;
6392;SDS011;3229;42.674;23.282;2022-10-23T23:16:34;10.87;;;7.90;;
6392;SDS011;3229;42.674;23.282;2022-10-23T23:19:02;11.43;;;8.20;;
6392;SDS011;3229;42.674;23.282;2022-10-23T23:21:29;14.30;;;7.87;;
6392;SDS011;3229;42.674;23.282;2022-10-23T23:23:56;8.90;;;7.27;;
6392;SDS011;3229;42.674;23.282;2022-10-23T23:26:24;11.80;;;7.87;;
6392;SDS011;3229;42.674;23.282;2022-10-23T23:28:52;9.63;;;7.37;;
6392;SDS011;3229;42.674;23.282;2022-10-23T23:31:20;14.97;;;7.37;;
6392;SDS011;3229;42.674;23.282;2022-10-23T23:33:48;11.67;;;7.80;;
6392;SDS011;3229;42.674;23.282;2022-10-23T23:36:16;8.13;;;6.80;;
6392;SDS011;3229;42.674;23.282;2022-10-23T23:38:45;11.00;;;7.77;;
6392;SDS011;3229;42.674;23.282;2022-10-23T23:41:12;12.40;;;8.07;;
6392;SDS011;3229;42.674;23.282;2022-10-23T23:43:41;8.37;;;7.27;;
6392;SDS011;3229;42.674;23.282;2022-10-23T23:46:09;14.20;;;7.67;;
6392;SDS011;3229;42.674;23.282;2022-10-23T23:48:36;10.33;;;7.40;;
6392;SDS011;3229;42.674;23.282;2022-10-23T23:51:04;11.67;;;8.00;;
6392;SDS011;3229;42.674;23.282;2022-10-23T23:53:31;10.60;;;7.77;;
6392;SDS011;3229;42.674;23.282;2022-10-23T23:55:58;15.87;;;7.70;;
6392;SDS011;3229;42.674;23.282;2022-10-23T23:58:25;10.27;;;7.80;;
